createdAt,value
2018-12-25T00:01:49.416Z,101409.52
2018-12-25T00:04:19.117Z,101410.83
2018-12-25T00:06:48.504Z,101406.90
2018-12-25T00:09:18.263Z,101407.73
2018-12-25T00:11:47.576Z,101404.59
2018-12-25T00:14:17.287Z,101417.63
2018-12-25T00:16:46.604Z,101415.88
2018-12-25T00:19:34.991Z,101401.94
2018-12-25T00:22:04.510Z,101395.34
2018-12-25T00:24:53.095Z,101395.81
2018-12-25T00:27:41.515Z,101407.88
2018-12-25T00:30:10.857Z,101408.73
2018-12-25T00:32:40.173Z,101390.72
2018-12-25T00:35:09.500Z,101390.69
2018-12-25T00:37:38.830Z,101391.05
2018-12-25T00:40:08.160Z,101396.70
2018-12-25T00:42:37.601Z,101398.84
2018-12-25T00:45:07.009Z,101383.55
2018-12-25T00:47:36.349Z,101387.05
2018-12-25T00:50:05.769Z,101392.70
2018-12-25T00:52:35.153Z,101389.13
2018-12-25T00:55:23.534Z,101396.09
2018-12-25T00:57:53.240Z,101400.86
2018-12-25T01:00:22.572Z,101360.44
2018-12-25T01:02:52.363Z,101395.62
2018-12-25T01:05:21.709Z,101401.70
2018-12-25T01:07:51.242Z,101407.34
2018-12-25T01:10:20.566Z,101379.81
2018-12-25T01:12:50.189Z,101388.92
2018-12-25T01:15:38.485Z,101288.02
2018-12-25T01:18:07.955Z,101379.31
2018-12-25T01:20:37.598Z,101377.56
2018-12-25T01:23:06.937Z,101374.91
2018-12-25T01:25:36.530Z,101369.66
2018-12-25T01:28:05.938Z,101317.96
2018-12-25T01:30:35.516Z,101375.30
2018-12-25T01:33:04.838Z,101368.75
2018-12-25T01:35:34.418Z,101368.78
2018-12-25T01:38:03.737Z,101316.08
2018-12-25T01:40:33.437Z,101359.56
2018-12-25T01:43:02.752Z,101352.50
2018-12-25T01:45:32.472Z,101345.14
2018-12-25T01:48:01.820Z,101276.76
2018-12-25T01:50:31.435Z,101336.73
2018-12-25T01:53:00.756Z,101328.35
2018-12-25T01:55:30.477Z,101335.31
2018-12-25T01:57:59.812Z,101263.80
2018-12-25T02:03:18.108Z,101280.87
2018-12-25T02:05:47.434Z,101348.28
2018-12-25T02:08:17.032Z,101329.52
2018-12-25T02:10:46.400Z,101350.90
2018-12-25T02:13:16.106Z,101333.84
2018-12-25T02:15:45.433Z,101325.58
2018-12-25T02:18:15.340Z,101319.50
2018-12-25T02:20:44.654Z,101315.48
2018-12-25T02:23:14.137Z,101316.88
2018-12-25T02:25:43.480Z,101308.97
2018-12-25T02:28:13.207Z,101305.51
2018-12-25T02:30:42.530Z,101315.92
2018-12-25T02:33:12.273Z,101304.44
2018-12-25T02:35:41.613Z,101286.84
2018-12-25T02:38:10.941Z,101278.94
2018-12-25T02:40:40.277Z,101282.39
2018-12-25T02:46:18.606Z,101278.85
2018-12-25T02:48:48.333Z,101255.28
2018-12-25T02:51:17.660Z,101271.89
2018-12-25T02:53:47.449Z,101273.56
2018-12-25T02:56:16.768Z,101249.91
2018-12-25T02:58:46.389Z,101247.72
2018-12-25T03:01:15.728Z,101210.48
2018-12-25T03:03:45.257Z,101253.41
2018-12-25T03:06:14.573Z,101183.56
2018-12-25T03:08:44.104Z,101245.50
2018-12-25T03:11:13.426Z,101223.59
2018-12-25T03:13:43.107Z,101216.16
2018-12-25T03:16:12.493Z,101207.02
2018-12-25T03:18:41.840Z,101214.84
2018-12-25T03:21:11.161Z,101183.78
2018-12-25T03:23:40.668Z,101232.81
2018-12-25T03:26:09.988Z,101241.52
2018-12-25T03:28:39.366Z,101241.56
2018-12-25T03:31:08.711Z,101215.61
2018-12-25T03:33:38.481Z,101264.66
2018-12-25T03:36:07.808Z,101190.19
2018-12-25T03:38:37.479Z,101259.37
2018-12-25T03:43:55.200Z,101264.10
2018-12-25T03:46:43.470Z,101260.67
2018-12-25T03:49:13.124Z,101253.69
2018-12-25T03:51:42.430Z,101266.80
2018-12-25T03:54:12.083Z,101258.05
2018-12-25T03:56:41.528Z,101250.66
2018-12-25T03:59:11.198Z,101247.56
2018-12-25T04:01:40.522Z,101247.13
2018-12-25T04:04:10.372Z,101236.59
2018-12-25T04:06:39.700Z,101233.13
2018-12-25T04:09:09.260Z,101226.56
2018-12-25T04:11:38.674Z,101228.23
2018-12-25T04:14:08.202Z,101232.53
2018-12-25T04:16:37.557Z,101224.66
2018-12-25T04:19:07.132Z,101233.05
2018-12-25T04:21:55.596Z,101230.42
2018-12-25T04:24:25.407Z,101227.80
2018-12-25T04:26:55.053Z,101213.77
2018-12-25T04:29:24.390Z,101215.55
2018-12-25T04:31:54.163Z,101220.00
2018-12-25T04:34:42.525Z,101225.73
2018-12-25T04:37:11.962Z,101209.16
2018-12-25T04:39:41.465Z,101213.66
2018-12-25T04:42:10.773Z,101202.77
2018-12-25T04:44:40.105Z,101215.88
2018-12-25T04:47:09.513Z,101207.22
2018-12-25T04:49:39.051Z,101200.34
2018-12-25T04:52:08.414Z,101194.66
2018-12-25T04:54:37.915Z,101209.13
2018-12-25T04:57:07.245Z,101200.47
2018-12-25T04:59:55.648Z,101200.51
2018-12-25T05:02:25.030Z,101220.58
2018-12-25T05:04:54.404Z,101219.75
2018-12-25T05:07:23.781Z,101164.48
2018-12-25T05:09:53.139Z,101220.58
2018-12-25T05:12:22.471Z,101214.10
2018-12-25T05:14:51.817Z,101202.34
2018-12-25T05:17:21.145Z,101214.58
2018-12-25T05:19:50.481Z,101208.54
2018-12-25T05:22:19.850Z,101210.29
2018-12-25T05:24:49.242Z,101206.36
2018-12-25T05:27:18.561Z,101207.27
2018-12-25T05:29:48.184Z,101212.13
2018-12-25T05:32:17.597Z,101219.11
2018-12-25T05:34:47.256Z,101219.98
2018-12-25T05:37:16.735Z,101221.38
2018-12-25T05:39:46.389Z,101214.06
2018-12-25T05:42:15.742Z,101208.86
2018-12-25T05:47:20.755Z,101224.63
2018-12-25T05:49:50.141Z,101222.89
2018-12-25T05:52:19.846Z,101214.27
2018-12-25T05:54:49.185Z,101160.33
2018-12-25T05:57:18.698Z,101232.61
2018-12-25T05:59:48.025Z,101229.20
2018-12-25T06:02:17.498Z,101226.58
2018-12-25T06:04:46.833Z,101236.16
2018-12-25T06:07:16.595Z,101221.62
2018-12-25T06:12:34.253Z,101198.57
2018-12-25T06:15:04.028Z,101193.72
2018-12-25T06:17:33.346Z,101202.94
2018-12-25T06:20:02.984Z,101204.84
2018-12-25T06:22:32.374Z,101186.63
2018-12-25T06:25:02.097Z,101201.47
2018-12-25T06:27:31.430Z,101097.73
2018-12-25T06:30:01.188Z,101183.23
2018-12-25T06:32:49.449Z,101198.16
2018-12-25T06:35:18.781Z,101198.20
2018-12-25T06:37:48.333Z,101211.38
2018-12-25T06:40:37.114Z,101213.64
2018-12-25T06:43:06.440Z,101212.84
2018-12-25T06:45:35.983Z,101210.72
2018-12-25T06:48:05.346Z,101214.22
2018-12-25T06:50:34.934Z,101218.23
2018-12-25T06:53:23.222Z,101164.25
2018-12-25T07:01:21.198Z,101207.23
2018-12-25T07:03:50.547Z,101202.06
2018-12-25T07:06:19.907Z,101205.23
2018-12-25T07:08:49.257Z,101198.28
2018-12-25T07:11:18.708Z,101207.78
2018-12-25T07:13:48.066Z,101203.70
2018-12-25T07:16:17.433Z,101198.80
2018-12-25T07:18:46.892Z,101201.38
2018-12-25T07:21:16.312Z,101195.55
2018-12-25T07:23:45.897Z,101201.23
2018-12-25T07:26:15.254Z,101189.00
2018-12-25T07:28:44.637Z,101198.58
2018-12-25T07:31:13.970Z,101193.33
2018-12-25T07:33:43.718Z,101193.19
2018-12-25T07:36:13.051Z,101187.87
2018-12-25T07:38:42.679Z,101195.73
2018-12-25T07:41:12.002Z,101150.83
2018-12-25T07:43:41.555Z,101199.11
2018-12-25T07:46:10.886Z,101172.87
2018-12-25T07:48:40.441Z,101202.64
2018-12-25T07:51:09.755Z,101187.17
2018-12-25T07:53:39.256Z,101205.11
2018-12-25T07:56:27.618Z,101209.84
2018-12-25T08:02:06.362Z,101193.48
2018-12-25T08:04:35.702Z,101196.42
2018-12-25T08:07:05.082Z,101204.69
2018-12-25T08:09:34.393Z,101197.22
2018-12-25T08:12:04.135Z,101197.26
2018-12-25T08:14:33.469Z,101148.98
2018-12-25T08:17:03.195Z,101196.34
2018-12-25T08:19:32.530Z,101190.63
2018-12-25T08:22:02.071Z,101194.13
2018-12-25T08:24:31.481Z,101204.14
2018-12-25T08:27:00.896Z,101193.97
2018-12-25T08:29:49.461Z,101202.58
2018-12-25T08:32:18.806Z,101209.50
2018-12-25T08:34:48.325Z,101216.41
2018-12-25T08:37:36.854Z,101219.51
2018-12-25T08:40:06.235Z,101207.23
2018-12-25T08:42:54.592Z,101207.55
2018-12-25T08:45:24.338Z,101212.23
2018-12-25T08:47:53.666Z,101217.00
2018-12-25T08:50:23.193Z,101218.70
2018-12-25T08:52:52.485Z,101203.13
2018-12-25T08:55:22.260Z,101208.45
2018-12-25T08:57:51.650Z,101211.91
2018-12-25T09:00:21.664Z,101208.02
2018-12-25T09:02:50.969Z,101214.92
2018-12-25T09:05:20.354Z,101213.02
2018-12-25T09:07:49.636Z,101212.89
2018-12-25T09:10:19.234Z,101211.05
2018-12-25T09:12:48.606Z,101220.55
2018-12-25T09:15:18.187Z,101225.72
2018-12-25T09:17:47.519Z,101187.11
2018-12-25T09:20:17.046Z,101219.50
2018-12-25T09:22:46.358Z,101185.11
2018-12-25T09:25:15.994Z,101238.93
2018-12-25T09:28:04.349Z,101235.74
2018-12-25T09:30:33.664Z,101236.05
2018-12-25T09:33:03.162Z,101235.61
2018-12-25T09:35:32.485Z,101242.48
2018-12-25T09:38:02.119Z,101246.86
2018-12-25T09:40:31.414Z,101250.71
2018-12-25T09:43:00.861Z,101255.45
2018-12-25T09:45:30.166Z,101255.05
2018-12-25T09:47:59.977Z,101253.69
2018-12-25T09:50:29.408Z,101253.65
2018-12-25T09:53:17.758Z,101253.65
2018-12-25T09:55:47.200Z,101243.97
2018-12-25T09:58:16.626Z,101243.05
2018-12-25T10:00:46.049Z,101246.13
2018-12-25T10:03:15.486Z,101250.94
2018-12-25T10:05:44.971Z,101245.68
2018-12-25T10:08:14.328Z,101247.78
2018-12-25T10:10:43.918Z,101244.67
2018-12-25T10:13:13.268Z,101242.88
2018-12-25T10:16:01.965Z,101229.66
2018-12-25T10:21:19.570Z,101236.62
2018-12-25T10:23:48.905Z,101233.20
2018-12-25T10:26:18.287Z,101227.16
2018-12-25T10:29:06.670Z,101225.36
2018-12-25T10:31:36.331Z,101231.45
2018-12-25T10:34:05.665Z,101234.60
2018-12-25T10:36:35.232Z,101241.47
2018-12-25T10:42:13.219Z,101244.92
2018-12-25T10:44:42.549Z,101186.47
2018-12-25T10:47:30.790Z,101243.27
2018-12-25T10:50:00.282Z,101242.78
2018-12-25T10:52:29.634Z,101209.67
2018-12-25T10:54:59.219Z,101243.19
2018-12-25T10:57:28.588Z,101247.21
2018-12-25T10:59:58.230Z,101235.83
2018-12-25T11:02:27.562Z,101237.63
2018-12-25T11:04:57.138Z,101238.94
2018-12-25T11:07:26.483Z,101233.29
2018-12-25T11:09:56.132Z,101245.98
2018-12-25T11:12:25.475Z,101239.42
2018-12-25T11:14:56.204Z,101237.14
2018-12-25T11:17:26.239Z,101241.23
2018-12-25T11:19:55.563Z,101234.92
2018-12-25T11:22:24.855Z,101237.84
2018-12-25T11:25:13.221Z,101235.11
2018-12-25T11:28:01.497Z,101241.51
2018-12-25T11:30:30.979Z,101233.02
2018-12-25T11:33:00.281Z,101180.57
2018-12-25T11:35:29.949Z,101219.15
2018-12-25T11:37:59.297Z,101213.90
2018-12-25T11:40:28.773Z,101208.73
2018-12-25T11:42:58.096Z,101199.89
2018-12-25T11:45:27.546Z,101197.66
2018-12-25T11:47:56.862Z,101152.52
2018-12-25T11:50:26.542Z,101191.57
2018-12-25T11:52:55.856Z,101152.70
2018-12-25T11:55:25.385Z,101194.50
2018-12-25T11:57:54.679Z,101193.52
2018-12-25T12:00:24.180Z,101193.09
2018-12-25T12:02:53.493Z,101188.76
2018-12-25T12:05:22.908Z,101193.92
2018-12-25T12:07:52.252Z,101195.23
2018-12-25T12:10:21.924Z,101189.06
2018-12-25T12:12:51.219Z,101196.06
2018-12-25T12:15:20.567Z,101202.01
2018-12-25T12:20:38.204Z,101210.53
2018-12-25T12:23:08.279Z,101198.19
2018-12-25T12:25:37.578Z,101202.45
2018-12-25T12:28:07.296Z,101204.16
2018-12-25T12:30:36.604Z,101163.08
2018-12-25T12:33:06.186Z,101158.01
2018-12-25T12:35:35.556Z,101199.29
2018-12-25T12:38:05.115Z,101198.98
2018-12-25T12:40:34.435Z,101190.80
2018-12-25T12:43:04.105Z,101190.56
2018-12-25T12:48:21.749Z,101192.97
2018-12-25T12:53:39.896Z,101191.41
2018-12-25T12:56:09.200Z,101189.80
2018-12-25T12:58:39.101Z,101188.09
2018-12-25T13:01:08.457Z,101192.94
2018-12-25T13:03:38.790Z,101185.99
2018-12-25T13:06:27.723Z,101192.65
2018-12-25T13:08:57.074Z,101190.94
2018-12-25T13:11:45.428Z,101184.81
2018-12-25T13:14:15.423Z,101191.90
2018-12-25T13:16:44.751Z,101190.72
2018-12-25T13:19:14.154Z,101192.47
2018-12-25T13:21:43.453Z,101191.20
2018-12-25T13:24:13.143Z,101188.63
2018-12-25T13:26:42.487Z,101195.75
2018-12-25T13:29:12.185Z,101195.79
2018-12-25T13:31:41.498Z,101200.21
2018-12-25T13:34:11.343Z,101201.12
2018-12-25T13:36:40.707Z,101156.15
2018-12-25T13:41:58.901Z,101211.88
2018-12-25T13:44:28.201Z,101212.05
2018-12-25T13:46:57.974Z,101217.42
2018-12-25T13:49:27.293Z,101213.18
2018-12-25T13:51:56.998Z,101212.78
2018-12-25T13:54:26.298Z,101217.71
2018-12-25T13:56:55.824Z,101215.21
2018-12-25T13:59:25.140Z,101171.44
2018-12-25T14:01:54.877Z,101213.63
2018-12-25T14:04:24.202Z,101223.77
2018-12-25T14:06:53.843Z,101219.98
2018-12-25T14:09:23.151Z,101217.05
2018-12-25T14:11:52.651Z,101212.31
2018-12-25T14:14:21.991Z,101210.69
2018-12-25T14:16:51.470Z,101217.44
2018-12-25T14:19:20.801Z,101180.30
2018-12-25T14:21:50.340Z,101226.87
2018-12-25T14:24:19.646Z,101226.95
2018-12-25T14:26:49.309Z,101211.23
2018-12-25T14:29:18.664Z,101221.23
2018-12-25T14:31:48.275Z,101225.24
2018-12-25T14:34:17.613Z,101191.01
2018-12-25T14:36:47.043Z,101234.97
2018-12-25T14:39:16.353Z,101237.59
2018-12-25T14:41:46.147Z,101238.89
2018-12-25T14:44:15.445Z,101190.38
2018-12-25T14:46:45.188Z,101236.86
2018-12-25T14:49:33.391Z,101229.55
2018-12-25T14:52:02.795Z,101111.55
2018-12-25T14:54:32.189Z,101213.06
2018-12-25T14:57:20.722Z,101214.04
2018-12-25T14:59:50.027Z,101214.52
2018-12-25T15:02:19.355Z,101213.74
2018-12-25T15:04:48.807Z,101226.81
2018-12-25T15:07:18.195Z,101228.59
2018-12-25T15:09:47.504Z,101219.35
2018-12-25T15:12:17.024Z,101213.70
2018-12-25T15:14:46.341Z,101213.70
2018-12-25T15:17:15.963Z,101219.35
2018-12-25T15:19:45.411Z,101217.13
2018-12-25T15:22:33.775Z,101215.38
2018-12-25T15:25:03.173Z,101226.81
2018-12-25T15:27:32.560Z,101228.12
2018-12-25T15:30:01.942Z,101232.05
2018-12-25T15:32:31.251Z,101222.45
2018-12-25T15:35:00.664Z,101230.27
2018-12-25T15:37:29.967Z,101221.50
2018-12-25T15:39:59.315Z,101217.97
2018-12-25T15:45:17.207Z,101210.29
2018-12-25T15:47:46.492Z,101111.66
2018-12-25T15:50:16.059Z,101216.70
2018-12-25T15:52:45.366Z,101214.51
2018-12-25T15:55:33.726Z,101213.20
2018-12-25T15:58:03.412Z,101218.44
2018-12-25T16:00:52.170Z,101221.06
2018-12-25T16:03:21.526Z,101218.44
2018-12-25T16:05:52.588Z,101208.91
2018-12-25T16:08:22.174Z,101207.13
2018-12-25T16:10:51.477Z,101199.73
2018-12-25T16:13:40.072Z,101190.48
2018-12-25T16:16:09.425Z,101180.48
2018-12-25T16:18:38.979Z,101175.12
2018-12-25T16:21:08.313Z,101182.55
2018-12-25T16:26:13.124Z,101185.13
2018-12-25T16:28:42.445Z,101184.22
2018-12-25T16:31:12.217Z,101191.61
2018-12-25T16:33:41.532Z,101194.73
2018-12-25T16:36:11.219Z,101198.20
2018-12-25T16:38:40.527Z,101193.83
2018-12-25T16:41:10.182Z,101210.06
2018-12-25T16:43:39.546Z,101216.30
2018-12-25T16:46:09.157Z,101212.44
2018-12-25T16:48:38.463Z,101215.12
2018-12-25T16:51:08.323Z,101226.05
2018-12-25T16:53:38.611Z,101238.72
2018-12-25T16:56:07.934Z,101224.05
2018-12-25T16:58:37.277Z,101238.78
2018-12-25T17:01:06.593Z,101231.83
2018-12-25T17:03:36.038Z,101185.33
2018-12-25T17:06:05.561Z,101230.85
2018-12-25T17:08:34.889Z,101229.25
2018-12-25T17:11:04.333Z,101231.91
2018-12-25T17:13:34.943Z,101223.31
2018-12-25T17:16:04.465Z,101235.41
2018-12-25T17:18:52.770Z,101205.30
2018-12-25T17:21:22.132Z,101234.59
2018-12-25T17:24:10.536Z,101233.62
2018-12-25T17:26:39.889Z,101235.41
2018-12-25T17:29:09.189Z,101235.41
2018-12-25T17:31:38.940Z,101237.00
2018-12-25T17:34:08.255Z,101186.97
2018-12-25T17:36:37.658Z,101215.28
2018-12-25T17:39:08.349Z,101218.23
2018-12-25T17:41:37.728Z,101222.88
2018-12-25T17:44:07.037Z,101218.48
2018-12-25T17:46:36.486Z,101221.94
2018-12-25T17:49:05.885Z,101214.83
2018-12-25T17:51:35.215Z,101206.17
2018-12-25T17:54:10.706Z,101200.57
2018-12-25T17:59:23.914Z,101197.04
2018-12-25T18:01:53.227Z,101197.04
2018-12-25T18:04:22.521Z,101207.59
2018-12-25T18:06:51.928Z,101212.03
2018-12-25T18:09:21.394Z,101222.92
2018-12-25T18:11:51.009Z,101219.83
2018-12-25T18:14:20.319Z,101206.28
2018-12-25T18:16:49.728Z,101206.28
2018-12-25T18:19:19.034Z,101196.64
2018-12-25T18:21:48.430Z,101193.55
2018-12-25T18:24:19.325Z,101187.39
2018-12-25T18:26:49.231Z,101193.11
2018-12-25T18:29:18.540Z,101191.72
2018-12-25T18:31:48.255Z,101177.31
2018-12-25T18:34:36.830Z,101176.83
2018-12-25T18:40:13.606Z,101193.03
2018-12-25T18:42:43.088Z,101186.48
2018-12-25T18:45:12.476Z,101185.02
2018-12-25T18:47:41.831Z,101185.85
2018-12-25T18:50:11.157Z,101139.73
2018-12-25T18:52:40.478Z,101195.86
2018-12-25T18:55:28.740Z,101203.77
2018-12-25T18:57:58.124Z,101201.50
2018-12-25T19:00:27.429Z,101206.82
2018-12-25T19:02:56.883Z,101198.99
2018-12-25T19:05:26.207Z,101204.27
2018-12-25T19:07:55.541Z,101190.33
2018-12-25T19:10:24.931Z,101186.33
2018-12-25T19:12:54.251Z,101181.59
2018-12-25T19:15:25.524Z,101176.08
2018-12-25T19:18:14.161Z,101156.72
2018-12-25T19:21:02.508Z,101195.17
2018-12-25T19:23:32.322Z,101201.84
2018-12-25T19:28:49.979Z,101214.11
2018-12-25T19:31:19.274Z,101221.64
2018-12-25T19:33:48.574Z,101215.53
2018-12-25T19:36:17.887Z,101213.34
2018-12-25T19:38:47.372Z,101213.42
2018-12-25T19:41:16.679Z,101212.55
2018-12-25T19:43:46.561Z,101215.23
2018-12-25T19:46:15.886Z,101214.80
2018-12-25T19:48:45.472Z,101216.98
2018-12-25T19:51:14.825Z,101217.86
2018-12-25T19:53:44.463Z,101230.02
2018-12-25T19:56:13.750Z,101178.73
2018-12-25T19:58:43.279Z,101238.72
2018-12-25T20:01:12.566Z,101201.27
2018-12-25T20:04:08.195Z,101225.72
2018-12-25T20:07:15.498Z,101224.84
2018-12-25T20:10:23.073Z,101232.70
2018-12-25T20:13:30.383Z,101241.91
2018-12-25T20:16:37.868Z,101237.19
2018-12-25T20:19:45.157Z,101229.43
2018-12-25T20:22:45.857Z,101234.20
2018-12-25T20:25:53.356Z,101241.22
2018-12-25T20:28:44.297Z,101240.78
2018-12-25T20:31:51.606Z,101239.91
2018-12-25T20:34:58.976Z,101234.67
2018-12-25T20:38:06.432Z,101232.45
2018-12-25T20:41:07.355Z,101179.83
2018-12-25T20:47:21.917Z,101220.26
2018-12-25T20:50:29.243Z,101223.28
2018-12-25T20:53:36.638Z,101211.97
2018-12-25T20:56:41.844Z,101214.52
2018-12-25T20:59:49.164Z,101224.88
2018-12-25T21:02:56.490Z,101204.33
2018-12-25T21:09:02.547Z,101226.52
2018-12-25T21:12:05.646Z,101216.92
2018-12-25T21:15:07.521Z,101216.11
2018-12-25T21:18:14.846Z,101210.22
2018-12-25T21:21:22.298Z,101217.20
2018-12-25T21:24:29.847Z,101222.92
2018-12-25T21:27:37.167Z,101216.19
2018-12-25T21:30:08.810Z,101225.94
2018-12-25T21:32:57.298Z,101229.00
2018-12-25T21:35:27.223Z,101227.25
2018-12-25T21:37:58.048Z,101225.69
2018-12-25T21:41:07.006Z,101240.02
2018-12-25T21:46:25.826Z,101239.48
2018-12-25T21:48:55.316Z,101235.19
2018-12-25T21:51:25.037Z,101232.70
2018-12-25T21:53:54.793Z,101232.31
2018-12-25T21:56:24.142Z,101240.23
2018-12-25T21:58:54.727Z,101247.19
2018-12-25T22:01:24.481Z,101244.24
2018-12-25T22:03:54.489Z,101243.84
2018-12-25T22:06:23.798Z,101238.20
2018-12-25T22:08:53.451Z,101238.23
2018-12-25T22:11:22.746Z,101199.53
2018-12-25T22:13:52.314Z,101237.53
2018-12-25T22:16:21.767Z,101203.30
2018-12-25T22:19:10.255Z,101237.77
2018-12-25T22:21:40.361Z,101241.00
2018-12-25T22:24:09.762Z,101239.48
2018-12-25T22:26:39.386Z,101240.73
2018-12-25T22:29:08.767Z,101241.94
2018-12-25T22:31:38.251Z,101245.90
2018-12-25T22:34:07.550Z,101234.25
2018-12-25T22:36:37.178Z,101241.34
2018-12-25T22:39:07.436Z,101240.59
2018-12-25T22:41:37.093Z,101250.73
2018-12-25T22:44:06.412Z,101251.57
2018-12-25T22:46:36.038Z,101253.85
2018-12-25T22:49:07.212Z,101252.98
2018-12-25T22:51:55.418Z,101256.16
2018-12-25T22:54:24.806Z,101256.26
2018-12-25T22:56:54.100Z,101258.47
2018-12-25T22:59:23.602Z,101256.88
2018-12-25T23:02:12.039Z,101264.11
2018-12-25T23:07:16.821Z,101265.02
2018-12-25T23:09:46.473Z,101276.36
2018-12-25T23:12:15.773Z,101228.11
2018-12-25T23:15:04.170Z,101271.88
2018-12-25T23:17:33.704Z,101170.99
2018-12-25T23:20:02.995Z,101165.23
2018-12-25T23:22:32.470Z,101267.77
2018-12-25T23:25:01.836Z,101166.61
2018-12-25T23:27:31.399Z,101274.36
2018-12-25T23:30:00.718Z,101205.85
2018-12-25T23:32:30.162Z,101266.42
2018-12-25T23:34:59.469Z,101256.05
2018-12-25T23:37:29.244Z,101254.95
2018-12-25T23:39:58.535Z,101261.55
2018-12-25T23:42:28.192Z,101264.41
2018-12-25T23:44:57.505Z,101259.23
2018-12-25T23:47:27.094Z,101263.63
2018-12-25T23:49:56.425Z,101255.89
2018-12-25T23:52:26.120Z,101265.45
2018-12-25T23:54:55.462Z,101274.20
2018-12-25T23:57:25.147Z,101266.42
2018-12-25T23:59:54.493Z,101260.28
